createdAt,value
2022-09-21T00:01:20.924Z,1.97
2022-09-21T00:03:51.771Z,2.23
2022-09-21T00:06:20.348Z,2.00
2022-09-21T00:08:48.367Z,2.30
2022-09-21T00:11:27.602Z,2.20
2022-09-21T00:13:56.286Z,2.40
2022-09-21T00:16:24.433Z,1.93
2022-09-21T00:18:52.053Z,1.70
2022-09-21T00:21:19.554Z,1.97
2022-09-21T00:23:46.787Z,2.07
2022-09-21T00:26:20.013Z,2.27
2022-09-21T00:28:47.933Z,2.30
2022-09-21T00:31:18.319Z,2.17
2022-09-21T00:33:45.478Z,2.23
2022-09-21T00:36:18.253Z,1.77
2022-09-21T00:38:49.287Z,2.27
2022-09-21T00:41:16.650Z,2.30
2022-09-21T00:43:47.815Z,2.27
2022-09-21T00:46:30.054Z,2.27
2022-09-21T00:48:58.673Z,1.90
2022-09-21T00:51:26.178Z,2.27
2022-09-21T00:54:00.587Z,1.90
2022-09-21T00:56:28.505Z,2.17
2022-09-21T00:58:55.830Z,2.50
2022-09-21T01:01:24.715Z,2.40
2022-09-21T01:03:53.530Z,2.90
2022-09-21T01:06:21.721Z,2.43
2022-09-21T01:08:53.820Z,2.07
2022-09-21T01:11:55.087Z,2.20
2022-09-21T01:15:17.720Z,2.23
2022-09-21T01:17:59.632Z,2.30
2022-09-21T01:21:05.226Z,2.50
2022-09-21T01:23:59.872Z,2.00
2022-09-21T01:27:05.993Z,2.30
2022-09-21T01:29:41.399Z,2.37
2022-09-21T01:32:17.062Z,2.60
2022-09-21T01:35:04.719Z,2.50
2022-09-21T01:37:56.321Z,2.57
2022-09-21T01:40:35.440Z,2.30
2022-09-21T01:43:05.703Z,2.40
2022-09-21T01:45:38.219Z,2.77
2022-09-21T01:48:06.147Z,2.17
2022-09-21T01:50:38.895Z,2.40
2022-09-21T01:53:16.599Z,2.67
2022-09-21T01:55:50.313Z,2.50
2022-09-21T01:58:29.849Z,2.63
2022-09-21T02:00:58.306Z,2.53
2022-09-21T02:03:36.657Z,2.33
2022-09-21T02:06:06.072Z,2.50
2022-09-21T02:08:34.003Z,2.90
2022-09-21T02:11:02.571Z,2.17
2022-09-21T02:13:34.397Z,3.17
2022-09-21T02:16:43.180Z,3.43
2022-09-21T02:19:31.807Z,2.33
2022-09-21T02:22:22.691Z,2.70
2022-09-21T02:25:14.222Z,2.53
2022-09-21T02:28:11.310Z,2.90
2022-09-21T02:30:41.678Z,2.47
2022-09-21T02:33:39.946Z,2.80
2022-09-21T02:36:46.450Z,2.87
2022-09-21T02:39:19.956Z,2.53
2022-09-21T02:42:07.705Z,2.93
2022-09-21T02:44:40.862Z,2.90
2022-09-21T02:47:38.514Z,3.30
2022-09-21T02:50:11.378Z,3.30
2022-09-21T02:52:41.621Z,2.90
2022-09-21T02:55:10.056Z,2.73
2022-09-21T02:57:38.384Z,3.30
2022-09-21T03:00:06.639Z,2.80
2022-09-21T03:02:41.804Z,3.37
2022-09-21T03:05:10.465Z,2.90
2022-09-21T03:07:37.717Z,2.90
2022-09-21T03:10:06.395Z,2.97
2022-09-21T03:12:33.448Z,2.80
2022-09-21T03:15:00.601Z,2.67
2022-09-21T03:17:27.937Z,2.50
2022-09-21T03:19:55.322Z,2.67
2022-09-21T03:22:23.128Z,2.70
2022-09-21T03:24:51.004Z,3.33
2022-09-21T03:27:20.748Z,3.53
2022-09-21T03:29:48.349Z,3.33
2022-09-21T03:32:15.626Z,2.93
2022-09-21T03:34:42.973Z,3.17
2022-09-21T03:37:10.698Z,3.07
2022-09-21T03:39:37.822Z,3.47
2022-09-21T03:42:05.242Z,2.90
2022-09-21T03:44:32.393Z,2.63
2022-09-21T03:46:59.439Z,3.80
2022-09-21T03:49:26.832Z,3.17
2022-09-21T03:51:53.881Z,3.00
2022-09-21T03:54:21.242Z,3.17
2022-09-21T03:56:48.224Z,3.17
2022-09-21T03:59:15.457Z,3.73
2022-09-21T04:01:42.711Z,3.23
2022-09-21T04:04:10.403Z,3.10
2022-09-21T04:06:37.467Z,3.50
2022-09-21T04:09:04.552Z,3.63
2022-09-21T04:11:33.451Z,3.40
2022-09-21T04:14:00.628Z,3.97
2022-09-21T04:16:28.398Z,3.27
2022-09-21T04:18:55.530Z,3.57
2022-09-21T04:21:22.601Z,3.77
2022-09-21T04:23:50.021Z,3.50
2022-09-21T04:26:31.801Z,3.93
2022-09-21T04:28:59.793Z,3.97
2022-09-21T04:31:28.098Z,3.77
2022-09-21T04:33:57.241Z,3.90
2022-09-21T04:36:26.105Z,3.27
2022-09-21T04:38:53.136Z,3.70
2022-09-21T04:41:20.388Z,3.30
2022-09-21T04:43:48.730Z,4.27
2022-09-21T04:46:18.751Z,3.90
2022-09-21T04:48:46.760Z,3.70
2022-09-21T04:51:15.166Z,3.77
2022-09-21T04:53:43.124Z,3.47
2022-09-21T04:56:13.071Z,4.47
2022-09-21T04:58:40.296Z,4.70
2022-09-21T05:01:07.880Z,4.83
2022-09-21T05:03:35.336Z,4.30
2022-09-21T05:06:02.705Z,4.37
2022-09-21T05:08:48.341Z,4.20
2022-09-21T05:11:21.101Z,4.80
2022-09-21T05:13:48.629Z,4.00
2022-09-21T05:16:17.167Z,3.80
2022-09-21T05:18:44.984Z,3.60
2022-09-21T05:21:13.941Z,4.73
2022-09-21T05:23:41.394Z,4.63
2022-09-21T05:26:08.445Z,4.37
2022-09-21T05:28:39.911Z,4.33
2022-09-21T05:31:32.891Z,4.40
2022-09-21T05:34:36.179Z,4.57
2022-09-21T05:37:54.293Z,3.77
2022-09-21T05:40:21.977Z,3.50
2022-09-21T05:42:50.636Z,4.13
2022-09-21T05:45:18.950Z,3.83
2022-09-21T05:48:08.349Z,3.90
2022-09-21T05:51:04.573Z,3.57
2022-09-21T05:53:43.714Z,3.70
2022-09-21T05:56:43.670Z,3.63
2022-09-21T06:00:11.688Z,4.13
2022-09-21T06:03:38.896Z,4.43
2022-09-21T06:06:07.922Z,3.77
2022-09-21T06:08:35.210Z,3.47
2022-09-21T06:11:02.388Z,3.40
2022-09-21T06:13:29.625Z,3.50
2022-09-21T06:15:57.191Z,3.60
2022-09-21T06:18:24.482Z,3.90
2022-09-21T06:20:51.447Z,3.97
2022-09-21T06:23:18.718Z,3.93
2022-09-21T06:25:53.648Z,3.30
2022-09-21T06:28:24.738Z,3.73
2022-09-21T06:30:53.311Z,3.43
2022-09-21T06:33:23.407Z,3.40
2022-09-21T06:35:55.711Z,3.60
2022-09-21T06:38:23.759Z,3.57
2022-09-21T06:40:51.587Z,3.60
2022-09-21T06:43:18.928Z,3.13
2022-09-21T06:45:57.202Z,3.20
2022-09-21T06:48:24.808Z,3.13
2022-09-21T06:50:52.178Z,3.33
2022-09-21T06:53:20.041Z,3.13
2022-09-21T06:55:47.067Z,3.53
2022-09-21T06:58:14.107Z,2.80
2022-09-21T07:00:41.141Z,3.23
2022-09-21T07:03:12.782Z,3.43
2022-09-21T07:05:40.232Z,3.87
2022-09-21T07:10:05.023Z,3.90
2022-09-21T07:10:57.509Z,4.23
2022-09-21T07:13:24.633Z,4.20
2022-09-21T07:15:53.421Z,3.57
2022-09-21T07:18:21.325Z,3.77
2022-09-21T07:20:49.284Z,3.20
2022-09-21T07:23:18.718Z,3.40
2022-09-21T07:25:50.653Z,3.60
2022-09-21T07:28:17.678Z,2.80
2022-09-21T07:30:44.756Z,3.13
2022-09-21T07:33:11.947Z,3.07
2022-09-21T07:35:39.069Z,3.13
2022-09-21T07:38:07.723Z,3.00
2022-09-21T07:40:35.859Z,2.30
2022-09-21T07:43:03.075Z,3.07
2022-09-21T07:45:31.215Z,2.90
2022-09-21T07:48:05.189Z,3.67
2022-09-21T07:50:34.217Z,3.10
2022-09-21T07:53:02.450Z,3.00
2022-09-21T07:55:29.844Z,3.17
2022-09-21T07:58:15.602Z,3.10
2022-09-21T08:00:42.844Z,2.70
2022-09-21T08:03:09.858Z,2.60
2022-09-21T08:05:36.875Z,2.90
2022-09-21T08:08:04.148Z,2.23
2022-09-21T08:10:32.122Z,2.53
2022-09-21T08:12:59.729Z,3.30
2022-09-21T08:15:47.399Z,2.50
2022-09-21T08:18:14.919Z,2.37
2022-09-21T08:20:42.899Z,2.10
2022-09-21T08:23:10.709Z,2.17
2022-09-21T08:25:38.076Z,2.33
2022-09-21T08:28:09.679Z,1.93
2022-09-21T08:30:37.608Z,2.13
2022-09-21T08:33:07.075Z,2.20
2022-09-21T08:35:34.784Z,2.43
2022-09-21T08:38:02.191Z,2.43
2022-09-21T08:40:29.787Z,2.00
2022-09-21T08:43:00.583Z,1.83
2022-09-21T08:45:32.013Z,1.70
2022-09-21T08:48:01.550Z,2.27
2022-09-21T08:50:58.484Z,2.20
2022-09-21T08:53:28.976Z,2.03
2022-09-21T08:55:57.324Z,2.43
2022-09-21T08:58:28.975Z,2.27
2022-09-21T09:01:15.355Z,2.10
2022-09-21T09:03:47.056Z,2.07
2022-09-21T09:06:40.455Z,2.10
2022-09-21T09:09:31.258Z,2.17
2022-09-21T09:12:18.927Z,2.50
2022-09-21T09:15:25.301Z,2.13
2022-09-21T09:18:01.231Z,2.13
2022-09-21T09:20:40.746Z,2.50
2022-09-21T09:23:13.780Z,1.80
2022-09-21T09:25:42.769Z,2.10
2022-09-21T09:28:25.046Z,1.90
2022-09-21T09:30:56.529Z,2.10
2022-09-21T09:33:26.208Z,2.20
2022-09-21T09:35:59.702Z,2.70
2022-09-21T09:38:54.180Z,3.43
2022-09-21T09:41:34.645Z,2.70
2022-09-21T09:44:16.804Z,4.80
2022-09-21T09:47:02.852Z,3.07
2022-09-21T09:49:53.691Z,2.87
2022-09-21T09:52:22.409Z,2.23
2022-09-21T09:54:49.826Z,1.90
2022-09-21T09:57:21.508Z,2.53
2022-09-21T09:59:54.474Z,2.50
2022-09-21T10:02:23.505Z,2.10
2022-09-21T10:05:09.003Z,2.13
2022-09-21T10:07:38.334Z,1.87
2022-09-21T10:10:24.451Z,1.90
2022-09-21T10:12:52.893Z,1.80
2022-09-21T10:15:21.334Z,2.03
2022-09-21T10:17:49.280Z,2.10
2022-09-21T10:20:17.744Z,2.23
2022-09-21T10:22:47.310Z,2.03
2022-09-21T10:25:19.011Z,2.20
2022-09-21T10:27:49.179Z,2.00
2022-09-21T10:30:33.923Z,1.70
2022-09-21T10:33:01.779Z,1.80
2022-09-21T10:35:29.832Z,1.57
2022-09-21T10:38:10.599Z,1.70
2022-09-21T10:40:39.036Z,1.50
2022-09-21T10:43:06.485Z,1.57
2022-09-21T10:45:39.144Z,1.43
2022-09-21T10:48:17.956Z,1.83
2022-09-21T10:50:46.571Z,1.87
2022-09-21T10:53:31.094Z,1.43
2022-09-21T10:56:19.007Z,1.50
2022-09-21T10:59:05.481Z,1.47
2022-09-21T11:01:33.042Z,1.50
2022-09-21T11:04:09.349Z,1.50
2022-09-21T11:06:48.675Z,1.30
2022-09-21T11:09:20.140Z,1.40
2022-09-21T11:11:53.707Z,1.73
2022-09-21T11:14:41.398Z,1.50
2022-09-21T11:17:32.334Z,1.60
2022-09-21T11:20:25.812Z,1.50
2022-09-21T11:23:25.745Z,1.50
2022-09-21T11:26:04.675Z,1.37
2022-09-21T11:28:37.202Z,1.73
2022-09-21T11:31:33.694Z,1.50
2022-09-21T11:34:19.656Z,1.43
2022-09-21T11:37:11.076Z,1.10
2022-09-21T11:39:52.304Z,2.00
2022-09-21T11:42:42.521Z,1.40
2022-09-21T11:45:21.858Z,1.40
2022-09-21T11:47:57.805Z,1.30
2022-09-21T11:50:31.264Z,1.60
2022-09-21T11:53:11.333Z,1.40
2022-09-21T11:55:59.273Z,1.40
2022-09-21T11:58:52.945Z,1.67
2022-09-21T12:01:40.283Z,1.43
2022-09-21T12:04:34.933Z,2.43
2022-09-21T12:07:21.434Z,3.73
2022-09-21T12:10:11.000Z,4.63
2022-09-21T12:13:17.307Z,1.43
2022-09-21T12:16:04.907Z,1.30
2022-09-21T12:18:43.803Z,3.40
2022-09-21T12:21:27.351Z,1.17
2022-09-21T12:23:57.169Z,1.00
2022-09-21T12:26:29.865Z,3.70
2022-09-21T12:29:01.225Z,1.60
2022-09-21T12:31:34.129Z,1.30
2022-09-21T12:34:16.038Z,1.17
2022-09-21T12:37:12.504Z,1.53
2022-09-21T12:39:49.865Z,1.57
2022-09-21T12:42:29.338Z,1.50
2022-09-21T12:44:59.599Z,1.30
2022-09-21T12:47:37.338Z,1.33
2022-09-21T12:50:09.439Z,1.20
2022-09-21T12:52:37.716Z,1.10
2022-09-21T12:55:23.541Z,1.30
2022-09-21T12:58:14.452Z,1.20
2022-09-21T13:01:09.330Z,1.43
2022-09-21T13:03:56.185Z,1.20
2022-09-21T13:06:37.798Z,1.43
2022-09-21T13:09:09.939Z,1.27
2022-09-21T13:11:50.253Z,1.50
2022-09-21T13:14:18.630Z,1.30
2022-09-21T13:16:54.071Z,1.20
2022-09-21T13:19:25.455Z,2.97
2022-09-21T13:22:13.879Z,3.27
2022-09-21T13:24:48.364Z,1.53
2022-09-21T13:27:16.150Z,1.90
2022-09-21T13:29:43.850Z,1.23
2022-09-21T13:32:22.769Z,0.98
2022-09-21T13:34:51.057Z,0.98
2022-09-21T13:37:27.650Z,2.35
2022-09-21T13:40:25.417Z,2.10
2022-09-21T13:42:53.506Z,1.52
2022-09-21T13:45:49.415Z,1.55
2022-09-21T13:48:27.349Z,6.95
2022-09-21T13:50:58.069Z,1.23
2022-09-21T13:53:32.552Z,4.95
2022-09-21T13:56:12.049Z,1.30
2022-09-21T13:58:46.539Z,2.00
2022-09-21T14:01:45.728Z,2.10
2022-09-21T14:04:27.616Z,1.10
2022-09-21T14:06:57.188Z,1.80
2022-09-21T14:09:35.055Z,1.27
2022-09-21T14:12:06.477Z,1.63
2022-09-21T14:14:41.577Z,1.20
2022-09-21T14:17:35.294Z,1.30
2022-09-21T14:20:03.849Z,2.38
2022-09-21T14:22:37.851Z,0.82
2022-09-21T14:25:27.295Z,1.10
2022-09-21T14:27:58.487Z,1.00
2022-09-21T14:30:29.319Z,1.30
2022-09-21T14:33:26.414Z,1.23
2022-09-21T14:35:55.307Z,1.23
2022-09-21T14:38:29.202Z,1.73
2022-09-21T14:41:07.682Z,0.70
2022-09-21T14:43:37.531Z,1.70
2022-09-21T14:46:46.532Z,1.27
2022-09-21T14:49:50.752Z,1.10
2022-09-21T14:52:57.080Z,1.10
2022-09-21T14:56:00.430Z,1.15
2022-09-21T14:58:57.312Z,1.50
2022-09-21T15:01:54.240Z,1.00
2022-09-21T15:04:45.692Z,0.98
2022-09-21T15:07:58.193Z,1.05
2022-09-21T15:10:56.630Z,1.05
2022-09-21T15:14:05.305Z,0.95
2022-09-21T15:16:47.395Z,1.35
2022-09-21T15:19:27.248Z,0.83
2022-09-21T15:22:22.485Z,0.82
2022-09-21T15:25:03.992Z,1.20
2022-09-21T15:27:33.754Z,1.00
2022-09-21T15:30:03.804Z,0.80
2022-09-21T15:32:40.553Z,0.88
2022-09-21T15:35:28.457Z,0.93
2022-09-21T15:37:57.151Z,0.70
2022-09-21T15:40:31.085Z,1.03
2022-09-21T15:43:19.623Z,0.83
2022-09-21T15:46:05.028Z,1.03
2022-09-21T15:48:42.228Z,0.90
2022-09-21T15:51:19.167Z,1.10
2022-09-21T15:53:52.366Z,0.80
2022-09-21T15:56:23.532Z,0.95
2022-09-21T15:58:50.908Z,0.82
2022-09-21T16:01:23.478Z,0.82
2022-09-21T16:04:04.883Z,0.80
2022-09-21T16:06:41.729Z,0.68
2022-09-21T16:09:47.184Z,0.75
2022-09-21T16:12:46.562Z,0.98
2022-09-21T16:15:39.900Z,0.73
2022-09-21T16:18:07.197Z,0.80
2022-09-21T16:20:44.101Z,0.87
2022-09-21T16:23:30.585Z,0.83
2022-09-21T16:26:00.851Z,0.67
2022-09-21T16:28:40.036Z,0.77
2022-09-21T16:31:34.462Z,0.77
2022-09-21T16:34:17.865Z,0.83
2022-09-21T16:36:45.736Z,1.10
2022-09-21T16:39:15.465Z,0.70
2022-09-21T16:42:00.243Z,0.80
2022-09-21T16:44:31.572Z,0.60
2022-09-21T16:47:01.766Z,0.80
2022-09-21T16:49:35.211Z,0.67
2022-09-21T16:52:03.285Z,0.60
2022-09-21T16:54:30.766Z,0.67
2022-09-21T16:57:00.209Z,1.40
2022-09-21T16:59:27.738Z,0.70
2022-09-21T17:01:57.119Z,0.70
2022-09-21T17:04:28.197Z,0.90
2022-09-21T17:06:55.925Z,0.90
2022-09-21T17:09:31.622Z,0.90
2022-09-21T17:12:01.387Z,0.80
2022-09-21T17:14:35.628Z,0.60
2022-09-21T17:17:12.969Z,1.00
2022-09-21T17:19:42.186Z,0.90
2022-09-21T17:22:17.642Z,0.90
2022-09-21T17:24:50.735Z,0.90
2022-09-21T17:27:21.478Z,0.77
2022-09-21T17:29:50.029Z,0.90
2022-09-21T17:32:22.879Z,1.00
2022-09-21T17:35:01.770Z,0.77
2022-09-21T17:37:29.398Z,0.70
2022-09-21T17:39:56.432Z,0.80
2022-09-21T17:42:26.118Z,0.77
2022-09-21T17:45:29.367Z,0.97
2022-09-21T17:47:56.941Z,0.90
2022-09-21T17:50:27.038Z,0.83
2022-09-21T17:53:14.703Z,1.00
2022-09-21T17:55:53.032Z,1.00
2022-09-21T17:58:48.801Z,0.80
2022-09-21T18:01:42.380Z,1.07
2022-09-21T18:04:14.037Z,0.90
2022-09-21T18:06:41.455Z,0.80
2022-09-21T18:09:12.766Z,1.07
2022-09-21T18:12:21.632Z,1.00
2022-09-21T18:15:47.947Z,0.80
2022-09-21T18:18:42.833Z,0.90
2022-09-21T18:21:20.042Z,1.10
2022-09-21T18:24:21.092Z,0.83
2022-09-21T18:26:49.367Z,1.00
2022-09-21T18:29:39.421Z,0.90
2022-09-21T18:32:36.340Z,1.40
2022-09-21T18:35:47.192Z,0.87
2022-09-21T18:38:39.066Z,0.90
2022-09-21T18:42:01.194Z,0.80
2022-09-21T18:44:40.192Z,0.90
2022-09-21T18:47:58.899Z,0.90
2022-09-21T18:51:02.759Z,0.70
2022-09-21T18:53:45.299Z,1.00
2022-09-21T18:56:13.353Z,0.90
2022-09-21T18:58:42.834Z,0.87
2022-09-21T19:01:14.115Z,0.80
2022-09-21T19:03:43.969Z,0.83
2022-09-21T19:06:46.813Z,0.80
2022-09-21T19:09:39.510Z,0.93
2022-09-21T19:12:17.978Z,0.87
2022-09-21T19:15:12.274Z,0.83
2022-09-21T19:18:15.310Z,0.90
2022-09-21T19:21:07.709Z,1.00
2022-09-21T19:24:13.424Z,0.80
2022-09-21T19:27:09.404Z,1.10
2022-09-21T19:29:59.632Z,0.90
2022-09-21T19:33:00.675Z,0.80
2022-09-21T19:35:33.150Z,0.83
2022-09-21T19:38:03.497Z,1.00
2022-09-21T19:40:34.039Z,1.03
2022-09-21T19:43:42.441Z,1.00
2022-09-21T19:46:55.828Z,0.90
2022-09-21T19:49:27.426Z,1.10
2022-09-21T19:51:56.499Z,0.93
2022-09-21T19:54:44.080Z,1.37
2022-09-21T19:57:34.954Z,0.80
2022-09-21T20:00:03.495Z,1.17
2022-09-21T20:02:57.635Z,1.03
2022-09-21T20:05:59.175Z,0.93
2022-09-21T20:08:54.664Z,0.83
2022-09-21T20:11:45.905Z,1.10
2022-09-21T20:14:57.346Z,0.97
2022-09-21T20:17:50.230Z,1.00
2022-09-21T20:20:24.050Z,1.20
2022-09-21T20:22:51.438Z,0.80
2022-09-21T20:25:37.855Z,1.40
2022-09-21T20:28:05.555Z,0.90
2022-09-21T20:30:34.684Z,0.80
2022-09-21T20:33:07.755Z,0.90
2022-09-21T20:35:35.164Z,1.00
2022-09-21T20:38:03.225Z,0.90
2022-09-21T20:40:32.505Z,1.00
2022-09-21T20:43:03.543Z,1.00
2022-09-21T20:45:30.581Z,1.03
2022-09-21T20:48:13.307Z,0.90
2022-09-21T20:50:46.318Z,0.90
2022-09-21T20:53:13.554Z,0.80
2022-09-21T20:55:41.443Z,1.20
2022-09-21T20:58:12.176Z,1.03
2022-09-21T21:00:39.566Z,0.90
2022-09-21T21:03:06.583Z,0.97
2022-09-21T21:05:33.582Z,0.90
2022-09-21T21:08:00.701Z,0.97
2022-09-21T21:10:27.748Z,1.10
2022-09-21T21:12:55.177Z,1.10
2022-09-21T21:15:22.346Z,1.00
2022-09-21T21:17:49.376Z,0.80
2022-09-21T21:20:17.045Z,1.20
2022-09-21T21:22:45.205Z,1.07
2022-09-21T21:25:12.286Z,1.10
2022-09-21T21:27:39.389Z,0.90
2022-09-21T21:30:07.854Z,1.07
2022-09-21T21:32:35.099Z,1.23
2022-09-21T21:35:02.539Z,1.00
2022-09-21T21:37:29.947Z,1.20
2022-09-21T21:39:57.186Z,1.10
2022-09-21T21:42:29.495Z,0.90
2022-09-21T21:44:56.777Z,1.10
2022-09-21T21:47:40.496Z,1.10
2022-09-21T21:50:09.861Z,1.10
2022-09-21T21:52:37.346Z,0.80
2022-09-21T21:55:05.512Z,0.90
2022-09-21T21:57:33.397Z,1.00
2022-09-21T22:00:00.509Z,1.20
2022-09-21T22:02:29.494Z,1.20
2022-09-21T22:04:56.609Z,1.20
2022-09-21T22:07:23.652Z,0.90
2022-09-21T22:09:50.657Z,1.17
2022-09-21T22:12:17.671Z,1.07
2022-09-21T22:14:46.519Z,1.17
2022-09-21T22:17:13.811Z,1.23
2022-09-21T22:19:40.860Z,1.13
2022-09-21T22:22:07.972Z,1.17
2022-09-21T22:24:34.982Z,1.03
2022-09-21T22:27:02.087Z,1.00
2022-09-21T22:29:29.073Z,1.00
2022-09-21T22:31:56.464Z,1.30
2022-09-21T22:34:23.730Z,1.40
2022-09-21T22:36:50.952Z,1.10
2022-09-21T22:39:18.241Z,0.93
2022-09-21T22:41:45.265Z,1.13
2022-09-21T22:44:12.565Z,1.23
2022-09-21T22:46:39.713Z,1.30
2022-09-21T22:49:06.818Z,1.30
2022-09-21T22:51:34.511Z,1.53
2022-09-21T22:54:01.848Z,1.10
2022-09-21T22:56:30.875Z,1.20
2022-09-21T22:59:02.015Z,1.13
2022-09-21T23:01:35.020Z,1.40
2022-09-21T23:04:05.292Z,1.33
2022-09-21T23:06:34.190Z,1.30
2022-09-21T23:09:03.573Z,1.40
2022-09-21T23:11:39.477Z,1.43
2022-09-21T23:14:06.569Z,1.60
2022-09-21T23:16:33.731Z,1.50
2022-09-21T23:19:00.925Z,1.30
2022-09-21T23:21:29.822Z,1.43
2022-09-21T23:24:00.187Z,2.07
2022-09-21T23:26:29.620Z,1.60
2022-09-21T23:28:59.178Z,1.10
2022-09-21T23:31:27.048Z,1.60
2022-09-21T23:33:55.621Z,1.37
2022-09-21T23:36:26.206Z,1.40
2022-09-21T23:38:53.679Z,1.83
2022-09-21T23:41:23.335Z,1.60
2022-09-21T23:43:50.896Z,1.57
2022-09-21T23:46:21.063Z,1.40
2022-09-21T23:48:49.210Z,1.60
2022-09-21T23:51:16.679Z,1.40
2022-09-21T23:53:44.071Z,1.47
2022-09-21T23:56:17.875Z,1.67
2022-09-21T23:58:45.177Z,1.67
